Time;durP1;ratioP1;P1;durP2;ratioP2;P2;SDS_P1;SDS_P2;PMS_P1;PMS_P2;Temp;Humidity;BMP_temperature;BMP_pressure;BME280_temperature;BME280_humidity;BME280_pressure;Samples;Min_cycle;Max_cycle;Signal;HPM_P1;HPM_P2
2023/03/08 00:01:54;;;;;;;0.30;0.30;;;;;;;2.55;78.92;99533.34;5134984;28;20047;-80
2023/03/08 00:04:25;;;;;;;0.50;0.50;;;;;;;2.60;78.99;99528.09;5146862;28;20058;-79
2023/03/08 00:06:55;;;;;;;1.40;1.35;;;;;;;2.61;79.07;99528.06;5138903;28;20116;-79
2023/03/08 00:09:25;;;;;;;0.30;0.30;;;;;;;2.60;79.35;99528.94;5131685;28;20031;-80
2023/03/08 00:11:56;;;;;;;0.60;0.60;;;;;;;2.57;79.12;99535.91;5150294;28;20035;-78
2023/03/08 00:14:26;;;;;;;0.32;0.32;;;;;;;2.65;79.09;99523.69;5131545;28;20066;-80
2023/03/08 00:16:57;;;;;;;0.30;0.30;;;;;;;2.67;79.07;99530.56;5133922;28;20119;-79
2023/03/08 00:19:28;;;;;;;0.40;0.40;;;;;;;2.65;78.96;99527.13;5131589;28;20473;-80
2023/03/08 00:21:58;;;;;;;0.30;0.30;;;;;;;2.65;78.78;99531.47;5147704;28;20420;-80
2023/03/08 00:24:29;;;;;;;0.98;0.98;;;;;;;2.63;79.00;99535.81;5131595;28;20716;-79
2023/03/08 00:26:59;;;;;;;0.50;0.50;;;;;;;2.64;78.79;99529.75;5149155;28;20114;-79
2023/03/08 00:29:30;;;;;;;0.40;0.40;;;;;;;2.63;79.26;99539.28;5133122;28;20077;-79
2023/03/08 00:32:01;;;;;;;0.30;0.30;;;;;;;2.69;79.54;99533.13;5127708;28;20117;-80
2023/03/08 00:34:31;;;;;;;0.93;0.93;;;;;;;2.62;78.79;99540.16;5153279;28;20030;-80
2023/03/08 00:37:02;;;;;;;1.38;1.27;;;;;;;2.70;78.72;99531.41;5150596;28;20035;-79
2023/03/08 00:39:32;;;;;;;0.38;0.38;;;;;;;2.71;78.38;99526.19;5152881;28;20053;-79
2023/03/08 00:42:03;;;;;;;0.40;0.40;;;;;;;2.68;78.65;99521.06;5151557;28;20038;-80
2023/03/08 00:44:33;;;;;;;0.30;0.30;;;;;;;2.64;78.78;99511.63;5164629;28;20679;-80
2023/03/08 00:47:04;;;;;;;0.47;0.47;;;;;;;2.70;78.52;99513.28;5149045;28;20117;-80
2023/03/08 00:49:34;;;;;;;0.70;0.70;;;;;;;2.71;78.49;99509.81;5147942;28;20405;-79
2023/03/08 00:52:05;;;;;;;0.40;0.40;;;;;;;2.65;78.82;99506.41;5148609;28;20073;-79
2023/03/08 00:54:36;;;;;;;0.30;0.30;;;;;;;2.72;78.57;99509.78;5151016;28;20082;-79
2023/03/08 00:57:07;;;;;;;0.50;0.50;;;;;;;2.71;78.70;99504.63;5143253;28;20126;-79
2023/03/08 00:59:37;;;;;;;0.30;0.30;;;;;;;2.77;78.30;99504.53;5170112;28;20109;-80
2023/03/08 01:02:08;;;;;;;0.30;0.30;;;;;;;2.78;78.31;99504.50;5156734;28;20091;-79
2023/03/08 01:04:38;;;;;;;0.30;0.30;;;;;;;2.79;78.05;99503.63;5140319;28;20037;-79
2023/03/08 01:07:08;;;;;;;0.30;0.30;;;;;;;2.77;78.73;99497.59;5131656;28;20027;-79
2023/03/08 01:09:39;;;;;;;0.35;0.35;;;;;;;2.74;78.93;99500.25;5135257;28;20035;-79
2023/03/08 01:12:09;;;;;;;0.20;0.20;;;;;;;2.73;78.91;99495.13;5125454;28;20035;-80
2023/03/08 01:14:40;;;;;;;0.40;0.40;;;;;;;2.72;79.01;99485.63;5151216;28;20045;-79
2023/03/08 01:17:10;;;;;;;0.60;0.60;;;;;;;2.75;79.02;99494.22;5154701;28;20051;-79
2023/03/08 01:19:41;;;;;;;0.65;0.65;;;;;;;2.79;78.91;99498.44;5167126;28;20591;-79
2023/03/08 01:22:11;;;;;;;0.30;0.30;;;;;;;2.81;78.45;99485.50;5166799;28;20027;-79
2023/03/08 01:24:46;;;;;;;0.50;0.50;;;;;;;2.76;78.77;99488.16;5136808;28;20026;-79
2023/03/08 01:27:16;;;;;;;0.93;0.93;;;;;;;2.76;78.63;99488.16;5148079;28;20054;-80
2023/03/08 01:29:47;;;;;;;0.57;0.57;;;;;;;2.78;78.83;99486.38;5137403;28;20064;-79
2023/03/08 01:32:17;;;;;;;0.30;0.30;;;;;;;2.80;78.52;99483.78;5143601;28;20030;-79
2023/03/08 01:34:47;;;;;;;0.30;0.30;;;;;;;2.72;78.47;99478.69;5158416;28;20343;-79
2023/03/08 01:37:18;;;;;;;1.55;0.95;;;;;;;2.75;78.12;99476.06;5169816;28;20054;-79
2023/03/08 01:39:48;;;;;;;0.68;0.68;;;;;;;2.79;78.35;99464.78;5131585;28;20034;-79
2023/03/08 01:42:19;;;;;;;0.30;0.30;;;;;;;2.70;79.18;99461.47;5150025;28;20049;-79
2023/03/08 01:45:00;;;;;;;0.30;0.30;;;;;;;2.75;78.65;99459.66;5133651;28;20069;-80
2023/03/08 01:47:34;;;;;;;14.60;1.98;;;;;;;2.75;78.83;99450.16;5127671;28;20038;-79
2023/03/08 01:50:10;;;;;;;0.50;0.50;;;;;;;2.79;78.40;99446.63;5146366;28;20042;-79
2023/03/08 01:52:51;;;;;;;0.30;0.30;;;;;;;2.76;79.04;99449.28;5149620;28;20355;-79
2023/03/08 01:55:21;;;;;;;0.40;0.40;;;;;;;2.76;78.41;99438.94;5129780;28;20066;-79
2023/03/08 01:57:54;;;;;;;0.40;0.40;;;;;;;2.71;78.92;99437.28;5147096;28;20559;-79
2023/03/08 02:00:25;;;;;;;0.40;0.40;;;;;;;2.76;78.80;99427.69;5146025;28;20034;-78
2023/03/08 02:03:01;;;;;;;0.55;0.55;;;;;;;2.66;79.22;99419.22;5147961;28;20120;-79
2023/03/08 02:05:34;;;;;;;0.77;0.77;;;;;;;2.76;78.91;99427.69;5129484;28;20038;-79
2023/03/08 02:08:05;;;;;;;1.95;1.38;;;;;;;2.76;78.72;99430.28;5134613;28;20577;-79
2023/03/08 02:10:36;;;;;;;1.27;1.27;;;;;;;2.76;78.85;99419.94;5145693;28;20057;-79
2023/03/08 02:13:08;;;;;;;0.40;0.40;;;;;;;2.72;78.85;99413.94;5133161;28;20031;-80
2023/03/08 02:15:38;;;;;;;0.55;0.55;;;;;;;2.74;78.56;99407.00;5151135;28;20042;-79
2023/03/08 02:18:09;;;;;;;0.30;0.30;;;;;;;2.74;78.38;99422.56;5152583;28;20394;-79
2023/03/08 02:20:40;;;;;;;0.25;0.25;;;;;;;2.72;78.57;99413.94;5154383;28;20863;-79
2023/03/08 02:23:12;;;;;;;0.93;0.93;;;;;;;2.76;78.89;99414.75;5149587;28;20041;-79
2023/03/08 02:25:52;;;;;;;0.35;0.35;;;;;;;2.75;78.61;99423.41;5159985;28;20587;-80
2023/03/08 02:28:24;;;;;;;0.45;0.45;;;;;;;2.78;78.53;99418.19;5152362;28;20042;-79
2023/03/08 02:30:55;;;;;;;0.45;0.45;;;;;;;2.76;78.77;99418.22;5135480;28;20042;-79
2023/03/08 02:33:26;;;;;;;0.60;0.60;;;;;;;2.76;78.25;99423.38;5142404;28;20042;-80
2023/03/08 02:35:57;;;;;;;0.80;0.80;;;;;;;2.69;78.96;99408.81;5145560;28;20441;-79
2023/03/08 02:38:27;;;;;;;0.30;0.30;;;;;;;2.66;79.20;99416.63;5149935;28;20106;-78
2023/03/08 02:40:58;;;;;;;1.23;1.23;;;;;;;2.68;79.63;99407.97;5160553;28;20045;-79
2023/03/08 02:43:28;;;;;;;0.35;0.35;;;;;;;2.71;78.49;99390.66;5161976;28;20044;-78
2023/03/08 02:45:59;;;;;;;0.43;0.43;;;;;;;2.77;78.90;99390.56;5160433;28;20054;-79
2023/03/08 02:48:29;;;;;;;0.63;0.63;;;;;;;2.70;79.00;99394.13;5157322;28;20063;-78
2023/03/08 02:51:00;;;;;;;0.68;0.68;;;;;;;2.67;78.50;99392.44;5148242;28;20083;-78
2023/03/08 02:53:30;;;;;;;1.05;0.98;;;;;;;2.71;78.28;99385.47;5137097;28;20034;-80
2023/03/08 02:56:01;;;;;;;0.50;0.50;;;;;;;2.76;78.71;99379.34;5130555;28;20693;-78
2023/03/08 02:58:31;;;;;;;0.40;0.40;;;;;;;2.69;78.79;99393.25;5129676;28;20178;-79
2023/03/08 03:01:02;;;;;;;0.40;0.40;;;;;;;2.72;78.03;99385.44;5144689;28;20054;-80
2023/03/08 03:03:32;;;;;;;0.88;0.88;;;;;;;2.68;78.96;99373.44;5147282;28;20047;-79
2023/03/08 03:06:03;;;;;;;0.82;0.82;;;;;;;2.74;78.90;99369.88;5127772;28;20034;-79
2023/03/08 03:08:33;;;;;;;0.40;0.40;;;;;;;2.74;78.33;99357.78;5167046;28;20045;-78
2023/03/08 03:11:20;;;;;;;0.40;0.40;;;;;;;2.78;78.12;99364.63;5149916;28;20046;-78
2023/03/08 03:13:56;;;;;;;0.65;0.65;;;;;;;2.72;78.17;99356.97;5147872;28;20589;-79
2023/03/08 03:16:27;;;;;;;0.60;0.60;;;;;;;2.74;78.14;99352.63;5137371;28;20038;-79
2023/03/08 03:18:58;;;;;;;0.35;0.35;;;;;;;2.72;78.28;99356.13;5144944;28;20034;-79
2023/03/08 03:21:28;;;;;;;0.50;0.50;;;;;;;2.74;78.18;99355.22;5136371;28;20062;-80
2023/03/08 03:23:59;;;;;;;0.40;0.40;;;;;;;2.69;78.20;99336.28;5132122;28;20046;-79
2023/03/08 03:26:30;;;;;;;0.95;0.95;;;;;;;2.77;78.18;99334.41;5145174;28;20057;-79
2023/03/08 03:29:00;;;;;;;0.30;0.30;;;;;;;2.74;78.23;99334.47;5135505;28;20129;-78
2023/03/08 03:31:31;;;;;;;0.93;0.93;;;;;;;2.75;78.20;99340.50;5139696;28;20078;-79
2023/03/08 03:34:02;;;;;;;0.40;0.40;;;;;;;2.79;77.37;99337.84;5166969;28;20046;-78
2023/03/08 03:36:33;;;;;;;0.30;0.30;;;;;;;2.78;77.86;99341.31;5165778;28;20122;-78
2023/03/08 03:39:03;;;;;;;0.32;0.32;;;;;;;2.79;77.58;99337.00;5159007;28;20705;-80
2023/03/08 03:41:34;;;;;;;0.40;0.40;;;;;;;2.78;78.16;99336.13;5150771;28;20108;-79
2023/03/08 03:44:04;;;;;;;0.35;0.35;;;;;;;2.68;78.20;99334.59;5152661;28;20077;-79
2023/03/08 03:46:35;;;;;;;0.30;0.30;;;;;;;2.73;77.89;99322.41;5167254;28;20058;-79
2023/03/08 03:49:05;;;;;;;0.30;0.30;;;;;;;2.72;78.47;99331.06;5159950;28;20034;-79
2023/03/08 03:51:36;;;;;;;0.60;0.60;;;;;;;2.74;78.34;99324.13;5147004;28;20041;-79
2023/03/08 03:54:06;;;;;;;0.40;0.40;;;;;;;2.65;78.29;99314.75;5148160;28;20057;-79
2023/03/08 03:56:37;;;;;;;0.40;0.40;;;;;;;2.70;78.49;99316.44;5165771;28;20642;-79
2023/03/08 03:59:07;;;;;;;0.30;0.30;;;;;;;2.72;78.60;99301.72;5152849;28;20026;-78
2023/03/08 04:01:38;;;;;;;0.55;0.55;;;;;;;2.65;78.58;99299.22;5147372;28;20046;-79
2023/03/08 04:04:09;;;;;;;0.50;0.50;;;;;;;2.64;78.68;99297.53;5148717;28;20050;-79
2023/03/08 04:06:40;;;;;;;0.65;0.65;;;;;;;2.68;78.27;99300.94;5151127;28;20046;-79
2023/03/08 04:09:15;;;;;;;0.30;0.30;;;;;;;2.68;78.19;99298.34;5149603;28;20030;-79
2023/03/08 04:11:46;;;;;;;0.52;0.52;;;;;;;2.63;78.46;99301.00;5131953;28;20076;-79
2023/03/08 04:14:16;;;;;;;0.40;0.40;;;;;;;2.69;78.61;99300.03;5155184;28;20035;-79
2023/03/08 04:16:46;;;;;;;0.30;0.30;;;;;;;2.68;78.81;99290.56;5134612;28;20310;-79
2023/03/08 04:19:17;;;;;;;1.10;1.10;;;;;;;2.75;78.30;99297.34;5139996;28;20117;-79
2023/03/08 04:21:47;;;;;;;0.40;0.40;;;;;;;2.74;78.40;99290.44;5138696;28;20129;-79
2023/03/08 04:24:18;;;;;;;0.30;0.30;;;;;;;2.75;78.00;99284.41;5156721;28;20033;-79
2023/03/08 04:26:48;;;;;;;0.60;0.60;;;;;;;2.72;77.75;99281.84;5146444;28;20046;-79
2023/03/08 04:29:19;;;;;;;0.38;0.38;;;;;;;2.65;78.17;99277.66;5155937;28;20069;-79
2023/03/08 04:31:49;;;;;;;0.20;0.20;;;;;;;2.64;78.56;99271.63;5155169;28;20045;-79
2023/03/08 04:34:20;;;;;;;0.30;0.30;;;;;;;2.67;78.54;99255.19;5164754;28;20030;-79
2023/03/08 04:36:50;;;;;;;0.70;0.70;;;;;;;2.68;78.18;99259.50;5132987;28;20054;-78
2023/03/08 04:39:20;;;;;;;0.47;0.47;;;;;;;2.64;77.87;99252.63;5155254;28;20022;-79
2023/03/08 04:41:51;;;;;;;0.30;0.30;;;;;;;2.62;78.55;99251.81;5153242;28;20049;-79
2023/03/08 04:44:21;;;;;;;2.05;1.95;;;;;;;2.62;78.05;99237.16;5172470;28;20033;-80
2023/03/08 04:46:52;;;;;;;0.88;0.88;;;;;;;2.63;78.09;99232.81;5146011;28;20583;-79
2023/03/08 04:49:24;;;;;;;0.88;0.88;;;;;;;2.61;78.19;99224.19;5136863;28;20041;-78
2023/03/08 04:51:54;;;;;;;0.47;0.47;;;;;;;2.63;78.21;99227.63;5150929;28;20043;-78
2023/03/08 04:54:26;;;;;;;0.80;0.80;;;;;;;2.63;78.41;99214.69;5139364;28;20026;-80
2023/03/08 04:56:56;;;;;;;0.30;0.30;;;;;;;2.63;77.95;99214.69;5153972;28;20073;-78
2023/03/08 04:59:27;;;;;;;0.50;0.50;;;;;;;2.56;78.25;99211.38;5136507;28;20058;-78
2023/03/08 05:01:57;;;;;;;0.30;0.30;;;;;;;2.52;78.29;99209.69;5146960;28;20031;-78
2023/03/08 05:04:29;;;;;;;0.40;0.40;;;;;;;2.56;78.45;99205.31;5129537;28;20149;-78
2023/03/08 05:06:59;;;;;;;0.30;0.30;;;;;;;2.48;78.61;99195.97;5129622;28;20709;-79
2023/03/08 05:09:30;;;;;;;0.60;0.60;;;;;;;2.48;78.21;99197.72;5151858;28;20144;-78
2023/03/08 05:12:00;;;;;;;0.57;0.57;;;;;;;2.47;78.74;99189.06;5148334;28;20034;-78
2023/03/08 05:14:31;;;;;;;0.50;0.50;;;;;;;2.42;78.87;99184.84;5147085;28;20797;-78
2023/03/08 05:17:01;;;;;;;0.30;0.30;;;;;;;2.38;78.63;99186.66;5143591;28;20746;-79
2023/03/08 05:19:31;;;;;;;0.40;0.40;;;;;;;2.46;78.49;99182.19;5144480;28;20049;-79
2023/03/08 05:22:04;;;;;;;0.50;0.50;;;;;;;2.45;78.27;99172.72;5151830;28;20046;-79
2023/03/08 05:24:39;;;;;;;1.15;1.15;;;;;;;2.47;77.91;99170.09;5141516;28;20046;-77
2023/03/08 05:27:10;;;;;;;0.40;0.40;;;;;;;2.41;78.69;99170.19;5140604;28;20038;-79
2023/03/08 05:29:40;;;;;;;0.40;0.40;;;;;;;2.36;78.60;99162.53;5144654;28;20418;-79
2023/03/08 05:32:12;;;;;;;0.82;0.82;;;;;;;2.40;78.40;99158.16;5130959;28;20022;-79
2023/03/08 05:34:42;;;;;;;0.57;0.57;;;;;;;2.39;78.64;99154.69;5127139;28;20553;-79
2023/03/08 05:37:12;;;;;;;0.30;0.30;;;;;;;2.42;78.65;99148.63;5153560;28;20110;-79
2023/03/08 05:39:43;;;;;;;0.40;0.40;;;;;;;2.30;78.66;99139.34;5127542;28;20034;-79
2023/03/08 05:42:13;;;;;;;1.20;1.20;;;;;;;2.40;77.93;99138.28;5160594;28;20057;-79
2023/03/08 05:44:44;;;;;;;0.40;0.40;;;;;;;2.33;78.34;99128.94;5146642;28;20027;-79
2023/03/08 05:47:15;;;;;;;0.60;0.60;;;;;;;2.29;78.87;99124.69;5140427;28;20038;-79
2023/03/08 05:49:45;;;;;;;0.30;0.30;;;;;;;2.27;79.02;99116.97;5130372;28;20555;-79
2023/03/08 05:52:16;;;;;;;0.85;0.85;;;;;;;2.23;79.04;99110.16;5127855;28;20041;-79
2023/03/08 05:54:46;;;;;;;0.60;0.60;;;;;;;2.02;80.00;99101.06;5146753;28;20049;-78
2023/03/08 05:57:17;;;;;;;0.50;0.50;;;;;;;2.20;78.94;99095.50;5144136;28;20497;-77
2023/03/08 05:59:47;;;;;;;1.15;1.10;;;;;;;2.27;78.79;99091.09;5129739;28;20367;-78
2023/03/08 06:02:17;;;;;;;0.30;0.30;;;;;;;2.26;79.32;99084.19;5153379;28;20117;-77
2023/03/08 06:04:48;;;;;;;1.02;1.02;;;;;;;2.18;79.53;99080.91;5162144;28;20065;-77
2023/03/08 06:07:18;;;;;;;0.40;0.40;;;;;;;2.07;79.75;99068.19;5144157;28;20022;-77
2023/03/08 06:09:50;;;;;;;0.63;0.63;;;;;;;2.16;79.69;99060.25;5150426;28;20027;-77
2023/03/08 06:12:21;;;;;;;0.40;0.40;;;;;;;2.16;80.21;99061.97;5140276;28;20026;-77
2023/03/08 06:14:51;;;;;;;0.35;0.35;;;;;;;1.95;80.92;99055.47;5129151;28;20049;-78
2023/03/08 06:17:21;;;;;;;0.65;0.65;;;;;;;2.08;80.08;99048.31;5129392;28;20044;-78
2023/03/08 06:19:52;;;;;;;4.68;1.13;;;;;;;2.15;79.62;99040.41;5146030;28;20474;-79
2023/03/08 06:22:22;;;;;;;0.45;0.45;;;;;;;2.14;79.69;99033.53;5130646;28;20033;-78
2023/03/08 06:24:53;;;;;;;0.30;0.30;;;;;;;2.20;79.73;99029.97;5132235;28;20677;-78
2023/03/08 06:27:24;;;;;;;0.30;0.30;;;;;;;2.01;80.07;99020.00;5147034;28;20037;-78
2023/03/08 06:29:54;;;;;;;0.30;0.30;;;;;;;2.07;80.14;99026.78;5132624;28;20045;-78
2023/03/08 06:32:25;;;;;;;1.17;1.17;;;;;;;2.04;80.71;99021.66;5166524;28;20612;-77
2023/03/08 06:34:55;;;;;;;0.60;0.60;;;;;;;2.15;79.71;99019.72;5161134;28;20045;-78
2023/03/08 06:37:26;;;;;;;0.73;0.73;;;;;;;1.91;80.81;99022.78;5142619;28;20135;-78
2023/03/08 06:39:56;;;;;;;4.57;1.23;;;;;;;2.13;79.82;99021.47;5140690;28;20106;-78
2023/03/08 06:42:26;;;;;;;0.45;0.45;;;;;;;1.93;80.39;99002.94;5148659;28;20026;-78
2023/03/08 06:44:57;;;;;;;0.63;0.63;;;;;;;2.01;80.48;99007.06;5145279;28;20506;-78
2023/03/08 06:47:29;;;;;;;0.90;0.90;;;;;;;2.08;80.09;98997.44;5141611;28;20038;-78
2023/03/08 06:50:00;;;;;;;0.30;0.30;;;;;;;2.00;80.21;98994.16;5123222;28;20113;-78
2023/03/08 06:52:36;;;;;;;0.75;0.75;;;;;;;2.03;80.66;98982.00;5136800;28;20538;-78
2023/03/08 06:55:07;;;;;;;0.57;0.57;;;;;;;1.84;81.11;98981.53;5146280;28;20050;-78
2023/03/08 06:57:37;;;;;;;0.77;0.77;;;;;;;1.87;81.26;98983.19;5157819;28;20552;-78
2023/03/08 07:00:10;;;;;;;0.68;0.68;;;;;;;1.65;82.87;98982.75;5141330;28;20058;-78
2023/03/08 07:02:40;;;;;;;0.50;0.50;;;;;;;1.79;81.27;98983.34;5141249;28;20022;-78
2023/03/08 07:05:11;;;;;;;0.40;0.40;;;;;;;1.91;80.65;98982.25;5163903;28;20049;-78
2023/03/08 07:07:42;;;;;;;0.30;0.30;;;;;;;1.73;81.44;98970.53;5188191;28;20030;-78
2023/03/08 07:10:14;;;;;;;0.50;0.50;;;;;;;1.86;80.81;98966.81;5171876;28;20026;-79
2023/03/08 07:12:48;;;;;;;0.50;0.50;;;;;;;1.97;80.41;98958.00;5161698;28;20109;-79
2023/03/08 07:15:21;;;;;;;2.05;1.88;;;;;;;1.81;80.78;98958.31;5147421;28;20035;-78
2023/03/08 07:17:54;;;;;;;1.90;0.73;;;;;;;1.66;81.91;98962.03;5145268;28;20069;-78
2023/03/08 07:20:26;;;;;;;0.73;0.73;;;;;;;1.47;82.91;98965.84;5161080;28;20035;-78
2023/03/08 07:23:00;;;;;;;0.38;0.38;;;;;;;1.56;82.92;98958.78;5136599;28;20031;-78
2023/03/08 07:25:30;;;;;;;0.60;0.60;;;;;;;1.24;84.87;98957.63;5157064;28;20545;-78
2023/03/08 07:28:01;;;;;;;0.73;0.73;;;;;;;1.21;84.71;98955.09;5146095;28;20039;-78
2023/03/08 07:30:32;;;;;;;0.57;0.57;;;;;;;1.12;85.23;98955.22;5146870;28;20034;-79
2023/03/08 07:33:02;;;;;;;0.30;0.30;;;;;;;1.03;86.51;98943.34;5145070;28;20068;-78
2023/03/08 07:35:33;;;;;;;0.30;0.30;;;;;;;1.21;85.66;98936.16;5124947;28;20042;-78
2023/03/08 07:38:03;;;;;;;0.28;0.28;;;;;;;1.19;85.33;98922.41;5127420;28;20100;-77
2023/03/08 07:40:34;;;;;;;2.13;1.95;;;;;;;1.21;84.98;98926.66;5123259;28;20042;-78
2023/03/08 07:43:05;;;;;;;0.77;0.77;;;;;;;1.23;84.72;98924.91;5146712;28;20022;-78
2023/03/08 07:45:38;;;;;;;0.82;0.82;;;;;;;0.87;87.53;98921.22;5140298;28;20494;-78
2023/03/08 07:48:09;;;;;;;;;;;;;;;0.97;86.44;98920.19;5125010;28;20155;-78
2023/03/08 07:50:39;;;;;;;0.25;0.25;;;;;;;1.02;86.25;98915.81;5144762;28;19961;-78
2023/03/08 07:53:09;;;;;;;0.47;0.47;;;;;;;0.92;87.67;98915.13;5140759;28;20482;-78
2023/03/08 07:55:40;;;;;;;1.08;1.08;;;;;;;1.00;86.17;98916.72;5142288;28;20027;-78
2023/03/08 07:58:10;;;;;;;0.88;0.88;;;;;;;0.96;86.97;98910.75;5123789;28;20034;-78
2023/03/08 08:00:41;;;;;;;0.40;0.40;;;;;;;0.92;86.86;98907.38;5145701;28;20102;-79
2023/03/08 08:03:11;;;;;;;0.60;0.60;;;;;;;0.92;87.94;98903.91;5127158;28;20122;-78
2023/03/08 08:05:41;;;;;;;0.82;0.82;;;;;;;0.76;88.78;98903.34;5121459;28;20053;-78
2023/03/08 08:08:12;;;;;;;1.10;1.10;;;;;;;0.89;87.78;98907.41;5128729;28;20428;-78
2023/03/08 08:10:43;;;;;;;1.02;1.02;;;;;;;1.03;86.88;98894.25;5159781;28;20101;-78
2023/03/08 08:13:13;;;;;;;1.00;1.00;;;;;;;0.92;87.69;98884.13;5144771;28;20029;-79
2023/03/08 08:15:44;;;;;;;0.30;0.30;;;;;;;0.73;88.34;98877.56;5144786;28;20113;-78
2023/03/08 08:18:14;;;;;;;0.60;0.60;;;;;;;0.73;89.03;98874.97;5148104;28;20034;-78
2023/03/08 08:20:45;;;;;;;0.55;0.55;;;;;;;0.97;87.21;98863.38;5142895;28;20092;-80
2023/03/08 08:23:15;;;;;;;0.57;0.57;;;;;;;0.81;88.58;98874.84;5161887;28;20035;-80
2023/03/08 08:25:47;;;;;;;0.50;0.50;;;;;;;0.71;88.98;98869.84;5162919;28;20262;-80
2023/03/08 08:28:18;;;;;;;0.30;0.30;;;;;;;0.61;89.90;98850.22;5169564;28;20078;-81
2023/03/08 08:31:03;;;;;;;0.93;0.93;;;;;;;0.87;88.71;98843.75;5177745;28;20047;-81
2023/03/08 08:33:35;;;;;;;0.30;0.30;;;;;;;0.67;89.76;98847.53;5126652;28;20445;-80
2023/03/08 08:36:09;;;;;;;0.55;0.55;;;;;;;0.80;88.90;98853.34;5127464;28;20030;-78
2023/03/08 08:38:42;;;;;;;1.15;1.13;;;;;;;0.88;88.18;98853.22;5129246;28;20153;-77
2023/03/08 08:41:14;;;;;;;0.40;0.40;;;;;;;0.99;87.51;98847.84;5138672;28;20073;-77
2023/03/08 08:43:46;;;;;;;0.40;0.40;;;;;;;0.74;89.44;98840.53;5125225;28;20506;-77
2023/03/08 08:46:16;;;;;;;0.40;0.40;;;;;;;0.80;88.83;98835.25;5146251;28;20613;-77
2023/03/08 08:48:47;;;;;;;0.50;0.50;;;;;;;0.69;90.19;98819.13;5141509;28;20031;-76
2023/03/08 08:51:17;;;;;;;0.82;0.82;;;;;;;0.70;90.03;98807.94;5154080;28;20035;-76
2023/03/08 08:53:48;;;;;;;0.50;0.50;;;;;;;0.69;90.11;98814.81;5141051;28;20556;-77
2023/03/08 08:56:21;;;;;;;1.05;1.05;;;;;;;0.66;91.00;98808.84;5140037;28;20049;-76
2023/03/08 08:58:52;;;;;;;0.73;0.73;;;;;;;0.77;90.39;98800.03;5141101;28;20031;-77
2023/03/08 09:01:26;;;;;;;0.40;0.40;;;;;;;0.92;89.41;98800.63;5149489;28;20358;-77
2023/03/08 09:03:58;;;;;;;1.08;1.08;;;;;;;1.04;88.36;98795.25;5142103;28;20038;-77
2023/03/08 09:06:29;;;;;;;0.45;0.45;;;;;;;0.93;88.75;98797.16;5141495;28;20043;-77
2023/03/08 09:09:00;;;;;;;0.40;0.40;;;;;;;0.94;88.25;98799.75;5145801;28;20586;-77
2023/03/08 09:11:31;;;;;;;0.85;0.85;;;;;;;0.87;89.82;98805.88;5125067;28;20037;-77
2023/03/08 09:14:01;;;;;;;0.70;0.70;;;;;;;0.91;88.90;98804.94;5139288;28;20035;-77
2023/03/08 09:16:32;;;;;;;0.32;0.32;;;;;;;0.79;90.28;98800.00;5142675;28;20027;-77
2023/03/08 09:19:04;;;;;;;0.40;0.40;;;;;;;0.97;88.84;98792.78;5146928;28;20044;-77
2023/03/08 09:21:35;;;;;;;0.40;0.40;;;;;;;1.06;87.97;98795.19;5143658;28;20560;-78
2023/03/08 09:24:08;;;;;;;0.40;0.40;;;;;;;1.16;87.46;98793.31;5143516;28;20041;-77
2023/03/08 09:26:38;;;;;;;0.73;0.73;;;;;;;0.97;88.83;98777.28;5135014;28;20046;-78
2023/03/08 09:29:10;;;;;;;1.10;1.10;;;;;;;0.89;89.42;98770.56;5140713;28;20557;-78
2023/03/08 09:31:42;;;;;;;0.55;0.55;;;;;;;1.21;87.41;98770.81;5159043;28;20130;-77
2023/03/08 09:34:14;;;;;;;0.30;0.30;;;;;;;1.23;87.67;98762.13;5161864;28;20030;-77
2023/03/08 09:36:44;;;;;;;0.30;0.30;;;;;;;1.22;88.30;98760.44;5142462;28;20102;-77
2023/03/08 09:39:15;;;;;;;0.40;0.40;;;;;;;1.27;87.69;98765.50;5162967;28;20026;-78
2023/03/08 09:41:54;;;;;;;0.52;0.52;;;;;;;1.25;88.24;98772.44;5145185;28;20051;-78
2023/03/08 09:44:43;;;;;;;0.52;0.52;;;;;;;1.10;89.03;98773.63;5163804;28;20041;-77
2023/03/08 09:47:16;;;;;;;0.70;0.70;;;;;;;1.00;90.47;98769.50;5121337;28;20681;-77
2023/03/08 09:49:51;;;;;;;0.50;0.50;;;;;;;1.15;89.67;98770.94;5130344;28;20837;-78
2023/03/08 09:52:31;;;;;;;0.30;0.30;;;;;;;1.19;89.25;98772.56;5146590;28;20023;-78
2023/03/08 09:55:03;;;;;;;1.55;1.48;;;;;;;1.32;88.07;98760.25;5141447;28;20042;-77
2023/03/08 09:57:39;;;;;;;0.80;0.80;;;;;;;1.28;88.38;98762.03;5134063;28;20034;-77
2023/03/08 10:00:22;;;;;;;0.88;0.88;;;;;;;1.35;88.42;98765.38;5127119;28;20557;-77
2023/03/08 10:03:19;;;;;;;0.63;0.63;;;;;;;1.46;88.58;98763.38;5142074;28;20037;-77
2023/03/08 10:06:11;;;;;;;0.55;0.55;;;;;;;1.44;87.88;98762.59;5132543;28;20565;-77
2023/03/08 10:09:05;;;;;;;0.38;0.38;;;;;;;1.42;88.35;98744.50;5144296;28;20461;-78
2023/03/08 10:11:43;;;;;;;2.42;1.58;;;;;;;1.58;87.29;98744.16;5141172;28;20030;-77
2023/03/08 10:14:22;;;;;;;0.95;0.95;;;;;;;1.64;87.18;98741.47;5146076;28;20028;-77
2023/03/08 10:16:58;;;;;;;0.90;0.90;;;;;;;1.69;86.28;98743.97;5158756;28;20054;-77
2023/03/08 10:19:57;;;;;;;4.60;1.85;;;;;;;1.79;85.88;98742.84;5139813;28;20709;-77
2023/03/08 10:22:33;;;;;;;1.73;1.60;;;;;;;1.89;85.47;98743.50;5144050;28;20031;-78
2023/03/08 10:25:23;;;;;;;0.60;0.60;;;;;;;1.84;86.00;98740.16;5142497;28;20046;-77
2023/03/08 10:27:56;;;;;;;0.82;0.82;;;;;;;1.92;85.44;98739.97;5148294;28;20034;-78
2023/03/08 10:30:44;;;;;;;1.03;1.00;;;;;;;1.92;86.23;98738.22;5124584;28;20421;-78
2023/03/08 10:33:18;;;;;;;6.72;2.35;;;;;;;2.01;85.31;98737.19;5140679;28;20026;-77
2023/03/08 10:36:01;;;;;;;1.98;1.85;;;;;;;2.10;85.00;98734.38;5156728;28;20027;-77
2023/03/08 10:38:33;;;;;;;7.97;2.78;;;;;;;1.96;86.61;98731.25;5141097;28;20030;-77
2023/03/08 10:41:08;;;;;;;0.80;0.80;;;;;;;2.11;85.99;98737.78;5159119;28;20033;-77
2023/03/08 10:43:53;;;;;;;0.30;0.30;;;;;;;2.13;85.99;98730.84;5144174;28;20070;-77
2023/03/08 10:46:29;;;;;;;0.45;0.45;;;;;;;2.21;85.63;98718.56;5137457;28;20421;-77
2023/03/08 10:49:14;;;;;;;0.77;0.77;;;;;;;2.28;85.44;98708.91;5141820;28;20038;-77
2023/03/08 10:51:58;;;;;;;0.55;0.55;;;;;;;2.33;85.63;98696.72;5155670;28;20034;-77
2023/03/08 10:54:29;;;;;;;1.45;1.40;;;;;;;2.28;86.28;98699.41;5160763;28;20030;-78
2023/03/08 10:57:01;;;;;;;0.65;0.65;;;;;;;2.22;86.75;98706.47;5148340;28;20030;-78
2023/03/08 10:59:35;;;;;;;1.05;1.05;;;;;;;2.30;86.75;98709.72;5128048;28;20050;-78
2023/03/08 11:02:11;;;;;;;0.50;0.50;;;;;;;2.45;86.21;98691.19;5146155;28;20043;-77
2023/03/08 11:04:58;;;;;;;0.50;0.50;;;;;;;2.54;85.72;98686.66;5157232;28;20038;-79
2023/03/08 11:07:31;;;;;;;0.30;0.30;;;;;;;2.63;85.92;98694.19;5141024;28;20046;-78
2023/03/08 11:10:11;;;;;;;2.47;2.28;;;;;;;2.61;86.32;98695.97;5143982;28;20768;-78
2023/03/08 11:12:41;;;;;;;0.50;0.50;;;;;;;2.63;86.08;98684.69;5152245;28;20050;-78
2023/03/08 11:15:17;;;;;;;1.67;1.58;;;;;;;2.78;85.53;98686.00;5142197;28;20038;-79
2023/03/08 11:18:30;;;;;;;0.73;0.70;;;;;;;2.87;85.94;98679.72;5146388;28;20022;-78
2023/03/08 11:21:13;;;;;;;0.43;0.43;;;;;;;2.85;85.59;98678.06;5142825;28;20058;-79
2023/03/08 11:24:03;;;;;;;0.80;0.80;;;;;;;3.02;85.05;98681.00;5158958;28;20085;-78
2023/03/08 11:27:00;;;;;;;0.95;0.95;;;;;;;3.10;84.80;98673.03;5158994;28;20030;-79
2023/03/08 11:29:33;;;;;;;0.40;0.40;;;;;;;3.14;84.78;98680.66;5141119;28;20721;-78
2023/03/08 11:32:19;;;;;;;0.65;0.65;;;;;;;3.17;84.38;98678.88;5144253;28;20153;-78
2023/03/08 11:35:16;;;;;;;0.75;0.75;;;;;;;3.22;84.54;98674.41;5164267;28;20053;-78
2023/03/08 11:38:02;;;;;;;0.30;0.30;;;;;;;3.28;84.88;98682.84;5136404;28;20031;-77
2023/03/08 11:40:35;;;;;;;0.50;0.50;;;;;;;3.10;84.58;98691.16;5144633;28;20035;-78
2023/03/08 11:43:22;;;;;;;2.00;1.90;;;;;;;3.28;84.85;98694.94;5145558;28;20030;-78
2023/03/08 11:46:30;;;;;;;0.75;0.75;;;;;;;3.33;83.86;98674.06;5145878;28;20054;-78
2023/03/08 11:49:12;;;;;;;1.10;1.05;;;;;;;3.36;84.11;98692.13;5147794;28;20034;-79
2023/03/08 11:52:02;;;;;;;0.77;0.77;;;;;;;3.38;84.46;98688.59;5145429;28;20046;-79
2023/03/08 11:55:08;;;;;;;0.40;0.40;;;;;;;3.47;83.70;98677.09;5145240;28;20022;-80
2023/03/08 11:57:45;;;;;;;0.63;0.63;;;;;;;3.43;84.50;98675.50;5127390;28;20034;-78
2023/03/08 12:00:25;;;;;;;0.70;0.70;;;;;;;3.38;84.43;98685.16;5144944;28;20041;-79
2023/03/08 12:03:02;;;;;;;0.35;0.35;;;;;;;3.24;85.08;98681.22;5171730;28;20042;-79
2023/03/08 12:05:37;;;;;;;0.70;0.70;;;;;;;3.50;83.96;98678.75;5149757;28;20062;-77
2023/03/08 12:08:07;;;;;;;0.50;0.50;;;;;;;3.52;84.06;98661.38;5143743;28;20027;-78
2023/03/08 12:10:43;;;;;;;1.75;1.33;;;;;;;3.57;84.26;98662.09;5143759;28;20086;-77